createdAt,value
2023-03-05T00:01:11.782Z,12.09
2023-03-05T00:03:38.686Z,12.43
2023-03-05T00:06:06.018Z,12.09
2023-03-05T00:08:33.739Z,12.37
2023-03-05T00:11:03.355Z,12.19
2023-03-05T00:13:30.776Z,12.23
2023-03-05T00:15:57.562Z,12.14
2023-03-05T00:18:24.875Z,12.23
2023-03-05T00:20:51.683Z,12.23
2023-03-05T00:23:18.513Z,11.79
2023-03-05T00:25:46.663Z,12.20
2023-03-05T00:28:14.146Z,12.12
2023-03-05T00:30:41.250Z,12.23
2023-03-05T00:33:08.956Z,11.96
2023-03-05T00:35:42.864Z,12.12
2023-03-05T00:38:12.033Z,12.18
2023-03-05T00:40:41.264Z,12.39
2023-03-05T00:43:08.808Z,12.21
2023-03-05T00:45:35.763Z,12.16
2023-03-05T00:48:03.827Z,12.09
2023-03-05T00:50:31.620Z,11.38
2023-03-05T00:52:59.313Z,11.59
2023-03-05T00:55:26.074Z,11.89
2023-03-05T00:57:52.882Z,11.75
2023-03-05T01:00:19.882Z,11.75
2023-03-05T01:02:46.661Z,11.79
2023-03-05T01:05:14.727Z,11.73
2023-03-05T01:07:41.703Z,11.72
2023-03-05T01:10:09.355Z,11.83
2023-03-05T01:12:37.303Z,12.04
2023-03-05T01:15:05.406Z,11.89
2023-03-05T01:17:32.513Z,11.89
2023-03-05T01:19:59.233Z,12.09
2023-03-05T01:22:26.220Z,12.04
2023-03-05T01:24:52.913Z,11.59
2023-03-05T01:27:19.983Z,11.84
2023-03-05T01:29:46.887Z,11.90
2023-03-05T01:32:13.731Z,11.94
2023-03-05T01:34:41.983Z,12.04
2023-03-05T01:37:09.602Z,12.00
2023-03-05T01:39:36.497Z,11.95
2023-03-05T01:42:04.299Z,11.99
2023-03-05T01:44:32.712Z,11.89
2023-03-05T01:46:59.683Z,11.77
2023-03-05T01:49:35.304Z,11.42
2023-03-05T01:52:11.834Z,11.82
2023-03-05T01:55:03.850Z,11.17
2023-03-05T01:57:38.456Z,11.21
2023-03-05T02:00:21.798Z,11.20
2023-03-05T02:02:51.423Z,11.46
2023-03-05T02:05:30.800Z,11.56
2023-03-05T02:08:00.816Z,11.88
2023-03-05T02:10:30.595Z,11.81
2023-03-05T02:13:01.006Z,12.12
2023-03-05T02:15:29.558Z,12.16
2023-03-05T02:17:56.553Z,12.11
2023-03-05T02:20:28.628Z,12.27
2023-03-05T02:22:56.209Z,12.31
2023-03-05T02:25:28.926Z,12.28
2023-03-05T02:28:01.949Z,12.27
2023-03-05T02:30:29.492Z,12.37
2023-03-05T02:32:56.248Z,12.38
2023-03-05T02:35:23.388Z,12.04
2023-03-05T02:37:50.185Z,11.90
2023-03-05T02:40:17.567Z,11.66
2023-03-05T02:42:44.722Z,11.58
2023-03-05T02:45:13.885Z,11.24
2023-03-05T02:47:41.158Z,12.01
2023-03-05T02:50:11.341Z,11.94
2023-03-05T02:52:39.381Z,11.31
2023-03-05T02:55:11.767Z,11.65
2023-03-05T02:57:39.931Z,11.52
2023-03-05T03:00:07.630Z,10.89
2023-03-05T03:02:35.010Z,11.10
2023-03-05T03:05:02.317Z,11.39
2023-03-05T03:07:29.278Z,11.04
2023-03-05T03:09:55.993Z,10.85
2023-03-05T03:12:23.239Z,10.82
2023-03-05T03:14:49.934Z,10.97
2023-03-05T03:17:18.310Z,10.77
2023-03-05T03:19:46.180Z,10.78
2023-03-05T03:22:16.072Z,11.06
2023-03-05T03:24:43.759Z,10.98
2023-03-05T03:27:10.681Z,10.40
2023-03-05T03:29:37.664Z,10.91
2023-03-05T03:32:04.792Z,10.47
2023-03-05T03:34:31.797Z,10.18
2023-03-05T03:36:58.624Z,10.59
2023-03-05T03:39:25.575Z,10.10
2023-03-05T03:41:53.605Z,9.59
2023-03-05T03:44:21.251Z,10.04
2023-03-05T03:46:50.001Z,9.96
2023-03-05T03:49:20.133Z,10.52
2023-03-05T03:51:47.934Z,9.80
2023-03-05T03:54:16.248Z,10.47
2023-03-05T03:56:43.696Z,10.66
2023-03-05T03:59:11.137Z,10.31
2023-03-05T04:01:38.197Z,10.13
2023-03-05T04:04:05.579Z,10.20
2023-03-05T04:06:33.617Z,10.55
2023-03-05T04:09:00.370Z,9.83
2023-03-05T04:11:27.070Z,10.06
2023-03-05T04:13:53.791Z,9.96
2023-03-05T04:16:23.728Z,9.85
2023-03-05T04:18:50.576Z,10.26
2023-03-05T04:21:17.460Z,9.55
2023-03-05T04:23:44.225Z,9.97
2023-03-05T04:26:11.338Z,10.03
2023-03-05T04:28:38.250Z,10.21
2023-03-05T04:31:05.450Z,10.01
2023-03-05T04:33:32.382Z,10.04
2023-03-05T04:35:59.306Z,9.51
2023-03-05T04:38:26.240Z,9.55
2023-03-05T04:40:53.024Z,9.59
2023-03-05T04:43:19.738Z,9.09
2023-03-05T04:45:46.696Z,9.37
2023-03-05T04:48:13.709Z,9.40
2023-03-05T04:50:40.903Z,9.22
2023-03-05T04:53:07.625Z,9.52
2023-03-05T04:55:34.428Z,9.39
2023-03-05T04:58:03.216Z,9.53
2023-03-05T05:00:30.103Z,9.88
2023-03-05T05:02:57.334Z,9.83
2023-03-05T05:05:26.091Z,9.91
2023-03-05T05:07:58.048Z,9.95
2023-03-05T05:10:26.237Z,10.03
2023-03-05T05:12:52.941Z,9.99
2023-03-05T05:15:20.372Z,9.74
2023-03-05T05:17:47.541Z,10.05
2023-03-05T05:20:16.485Z,10.10
2023-03-05T05:22:43.744Z,10.25
2023-03-05T05:25:10.729Z,9.37
2023-03-05T05:27:40.313Z,9.71
2023-03-05T05:30:07.861Z,9.71
2023-03-05T05:32:35.350Z,9.38
2023-03-05T05:35:02.518Z,9.27
2023-03-05T05:37:30.158Z,9.32
2023-03-05T05:39:56.828Z,9.30
2023-03-05T05:42:25.009Z,10.06
2023-03-05T05:44:51.894Z,9.62
2023-03-05T05:47:19.050Z,9.58
2023-03-05T05:49:46.787Z,9.62
2023-03-05T05:52:14.279Z,10.23
2023-03-05T05:54:40.957Z,10.45
2023-03-05T05:57:07.893Z,10.19
2023-03-05T05:59:35.057Z,9.78
2023-03-05T06:02:01.849Z,9.73
2023-03-05T06:04:28.596Z,9.52
2023-03-05T06:06:55.735Z,9.50
2023-03-05T06:09:22.591Z,9.25
2023-03-05T06:11:50.422Z,10.04
2023-03-05T06:14:17.229Z,9.55
2023-03-05T06:16:44.218Z,9.71
2023-03-05T06:19:15.139Z,10.21
2023-03-05T06:21:43.548Z,9.95
2023-03-05T06:24:10.849Z,9.92
2023-03-05T06:26:38.536Z,10.32
2023-03-05T06:29:05.258Z,10.32
2023-03-05T06:31:32.247Z,10.48
2023-03-05T06:34:03.777Z,10.41
2023-03-05T06:36:31.003Z,10.70
2023-03-05T06:38:58.488Z,10.55
2023-03-05T06:41:31.551Z,10.71
2023-03-05T06:44:02.328Z,10.75
2023-03-05T06:46:32.506Z,10.49
2023-03-05T06:49:01.813Z,10.46
2023-03-05T06:51:34.907Z,10.41
2023-03-05T06:54:06.855Z,10.62
2023-03-05T06:56:36.549Z,10.70
2023-03-05T06:59:03.394Z,10.77
2023-03-05T07:01:30.252Z,10.40
2023-03-05T07:04:00.413Z,10.51
2023-03-05T07:06:27.810Z,10.59
2023-03-05T07:08:59.040Z,11.00
2023-03-05T07:11:26.166Z,10.85
2023-03-05T07:13:53.220Z,10.84
2023-03-05T07:16:26.190Z,10.86
2023-03-05T07:18:54.183Z,11.51
2023-03-05T07:21:23.532Z,11.62
2023-03-05T07:23:50.666Z,11.35
2023-03-05T07:26:17.626Z,11.36
2023-03-05T07:28:44.549Z,11.73
2023-03-05T07:31:26.991Z,11.56
2023-03-05T07:33:54.190Z,12.01
2023-03-05T07:36:23.328Z,11.63
2023-03-05T07:38:51.187Z,10.56
2023-03-05T07:41:20.019Z,11.07
2023-03-05T07:43:49.256Z,10.86
2023-03-05T07:46:21.394Z,11.34
2023-03-05T07:48:49.366Z,11.20
2023-03-05T07:51:19.985Z,10.95
2023-03-05T07:53:51.158Z,11.35
2023-03-05T07:56:23.560Z,10.85
2023-03-05T07:58:50.648Z,10.80
2023-03-05T08:01:17.680Z,10.91
2023-03-05T08:03:44.863Z,10.88
2023-03-05T08:06:12.758Z,11.22
2023-03-05T08:08:39.828Z,11.07
2023-03-05T08:11:09.824Z,11.08
2023-03-05T08:13:37.222Z,11.26
2023-03-05T08:16:09.735Z,11.31
2023-03-05T08:18:36.419Z,11.29
2023-03-05T08:21:03.881Z,10.53
2023-03-05T08:23:31.197Z,10.75
2023-03-05T08:25:58.045Z,10.27
2023-03-05T08:28:24.856Z,10.76
2023-03-05T08:30:51.865Z,11.27
2023-03-05T08:33:19.048Z,11.24
2023-03-05T08:35:45.971Z,10.77
2023-03-05T08:38:12.778Z,10.94
2023-03-05T08:40:39.682Z,11.26
2023-03-05T08:43:07.232Z,10.43
2023-03-05T08:45:34.161Z,10.23
2023-03-05T08:48:00.944Z,10.52
2023-03-05T08:50:27.726Z,10.92
2023-03-05T08:52:56.927Z,11.11
2023-03-05T08:55:23.807Z,11.35
2023-03-05T08:57:50.718Z,10.76
2023-03-05T09:00:17.975Z,10.50
2023-03-05T09:02:44.936Z,10.89
2023-03-05T09:05:11.766Z,11.06
2023-03-05T09:07:38.632Z,11.18
2023-03-05T09:10:06.352Z,11.05
2023-03-05T09:12:33.221Z,10.86
2023-03-05T09:15:00.043Z,11.46
2023-03-05T09:17:26.803Z,11.61
2023-03-05T09:19:53.697Z,11.06
2023-03-05T09:22:20.436Z,11.49
2023-03-05T09:24:48.179Z,12.20
2023-03-05T09:27:14.982Z,11.86
2023-03-05T09:29:43.161Z,12.02
2023-03-05T09:32:10.295Z,11.79
2023-03-05T09:34:37.246Z,11.48
2023-03-05T09:37:04.441Z,11.80
2023-03-05T09:39:31.398Z,11.62
2023-03-05T09:42:28.279Z,11.81
2023-03-05T09:45:20.004Z,11.29
2023-03-05T09:48:01.835Z,11.97
2023-03-05T09:50:42.048Z,11.78
2023-03-05T09:53:20.807Z,12.17
2023-03-05T09:55:52.495Z,11.89
2023-03-05T09:58:22.270Z,12.04
2023-03-05T10:00:54.797Z,12.30
2023-03-05T10:03:34.828Z,12.22
2023-03-05T10:06:24.685Z,13.30
2023-03-05T10:09:09.837Z,13.86
2023-03-05T10:11:50.356Z,14.08
2023-03-05T10:14:29.723Z,13.38
2023-03-05T10:16:59.163Z,13.14
2023-03-05T10:19:28.517Z,14.02
2023-03-05T10:22:21.568Z,13.95
2023-03-05T10:25:19.642Z,13.80
2023-03-05T10:27:54.083Z,13.14
2023-03-05T10:30:46.436Z,13.36
2023-03-05T10:33:23.493Z,13.74
2023-03-05T10:35:55.955Z,14.17
2023-03-05T10:38:28.558Z,14.32
2023-03-05T10:40:55.911Z,13.92
2023-03-05T10:43:41.643Z,13.76
2023-03-05T10:46:32.984Z,14.03
2023-03-05T10:49:17.277Z,14.09
2023-03-05T10:52:01.700Z,13.30
2023-03-05T10:54:31.498Z,12.96
2023-03-05T10:57:21.310Z,13.76
2023-03-05T10:59:55.966Z,14.51
2023-03-05T11:02:23.915Z,14.70
2023-03-05T11:04:52.170Z,13.95
2023-03-05T11:07:18.947Z,13.27
2023-03-05T11:10:02.620Z,13.77
2023-03-05T11:12:38.830Z,12.95
2023-03-05T11:15:11.618Z,13.36
2023-03-05T11:17:43.386Z,13.17
2023-03-05T11:20:30.712Z,13.39
2023-03-05T11:23:15.857Z,14.26
2023-03-05T11:25:59.467Z,14.34
2023-03-05T11:28:38.238Z,14.51
2023-03-05T11:31:21.136Z,14.44
2023-03-05T11:33:55.686Z,14.54
2023-03-05T11:36:26.926Z,14.95
2023-03-05T11:38:59.677Z,14.76
2023-03-05T11:41:54.098Z,15.10
2023-03-05T11:44:34.277Z,14.12
2023-03-05T11:47:28.574Z,14.45
2023-03-05T11:50:19.145Z,14.71
2023-03-05T11:52:48.389Z,14.77
2023-03-05T11:55:18.987Z,14.27
2023-03-05T11:57:51.741Z,14.82
2023-03-05T12:00:24.831Z,14.35
2023-03-05T12:02:54.598Z,14.82
2023-03-05T12:05:21.520Z,14.54
2023-03-05T12:07:55.278Z,15.63
2023-03-05T12:10:25.665Z,15.11
2023-03-05T12:13:11.111Z,14.71
2023-03-05T12:16:00.305Z,15.79
2023-03-05T12:18:51.214Z,14.97
2023-03-05T12:21:33.226Z,14.96
2023-03-05T12:24:02.365Z,15.62
2023-03-05T12:26:53.631Z,16.10
2023-03-05T12:29:43.659Z,15.58
2023-03-05T12:32:22.850Z,15.32
2023-03-05T12:35:24.871Z,16.40
2023-03-05T12:37:51.858Z,16.22
2023-03-05T12:40:25.780Z,15.74
2023-03-05T12:43:33.947Z,16.13
2023-03-05T12:46:31.643Z,15.46
2023-03-05T12:48:59.503Z,16.14
2023-03-05T12:51:33.971Z,16.49
2023-03-05T12:54:36.624Z,16.83
2023-03-05T12:57:17.370Z,17.09
2023-03-05T12:59:50.404Z,17.58
2023-03-05T13:02:58.895Z,17.69
2023-03-05T13:05:29.979Z,17.29
2023-03-05T13:08:35.391Z,16.90
2023-03-05T13:11:08.473Z,17.10
2023-03-05T13:13:41.578Z,15.76
2023-03-05T13:16:25.187Z,15.77
2023-03-05T13:18:54.956Z,15.60
2023-03-05T13:21:26.890Z,15.65
2023-03-05T13:23:59.193Z,15.20
2023-03-05T13:26:35.989Z,15.19
2023-03-05T13:29:17.636Z,14.30
2023-03-05T13:31:48.429Z,15.23
2023-03-05T13:34:37.420Z,14.82
2023-03-05T13:37:21.293Z,14.54
2023-03-05T13:39:52.740Z,15.17
2023-03-05T13:42:24.692Z,15.47
2023-03-05T13:45:00.073Z,14.91
2023-03-05T13:47:32.366Z,14.69
2023-03-05T13:50:02.112Z,15.02
2023-03-05T13:52:32.111Z,14.59
2023-03-05T13:55:00.443Z,15.06
2023-03-05T13:57:41.256Z,15.40
2023-03-05T14:00:26.186Z,15.70
2023-03-05T14:02:55.214Z,15.70
2023-03-05T14:05:22.354Z,15.84
2023-03-05T14:07:51.258Z,15.19
2023-03-05T14:10:47.869Z,15.59
2023-03-05T14:13:20.975Z,15.61
2023-03-05T14:16:25.819Z,15.68
2023-03-05T14:18:55.308Z,15.33
2023-03-05T14:21:22.339Z,15.03
2023-03-05T14:23:53.070Z,15.03
2023-03-05T14:26:31.578Z,15.50
2023-03-05T14:29:04.114Z,15.39
2023-03-05T14:31:36.624Z,15.36
2023-03-05T14:34:07.513Z,15.36
2023-03-05T14:36:36.463Z,15.24
2023-03-05T14:39:03.414Z,14.35
2023-03-05T14:41:33.311Z,14.17
2023-03-05T14:44:01.375Z,13.81
2023-03-05T14:46:29.079Z,14.05
2023-03-05T14:48:56.327Z,14.57
2023-03-05T14:51:25.418Z,14.44
2023-03-05T14:53:52.161Z,14.29
2023-03-05T14:56:24.548Z,14.42
2023-03-05T14:58:51.964Z,14.55
2023-03-05T15:01:21.202Z,14.64
2023-03-05T15:03:48.580Z,14.65
2023-03-05T15:06:26.207Z,14.77
2023-03-05T15:08:53.626Z,14.57
2023-03-05T15:11:22.612Z,14.38
2023-03-05T15:13:50.172Z,13.92
2023-03-05T15:16:19.317Z,14.03
2023-03-05T15:18:46.439Z,14.11
2023-03-05T15:21:13.420Z,14.17
2023-03-05T15:23:44.654Z,14.24
2023-03-05T15:26:14.767Z,14.52
2023-03-05T15:28:42.955Z,14.04
2023-03-05T15:31:10.420Z,14.53
2023-03-05T15:33:37.640Z,14.09
2023-03-05T15:36:04.791Z,14.35
2023-03-05T15:38:32.769Z,14.33
2023-03-05T15:41:01.713Z,14.30
2023-03-05T15:43:30.539Z,13.30
2023-03-05T15:45:57.428Z,13.46
2023-03-05T15:48:24.287Z,13.58
2023-03-05T15:50:51.982Z,13.58
2023-03-05T15:53:20.180Z,13.35
2023-03-05T15:55:46.965Z,13.34
2023-03-05T15:58:16.916Z,13.63
2023-03-05T16:00:44.625Z,13.88
2023-03-05T16:03:11.642Z,13.40
2023-03-05T16:05:38.874Z,13.39
2023-03-05T16:08:06.651Z,13.12
2023-03-05T16:10:33.775Z,13.04
2023-03-05T16:13:10.114Z,13.51
2023-03-05T16:15:39.360Z,13.55
2023-03-05T16:18:10.012Z,13.68
2023-03-05T16:20:36.842Z,13.87
2023-03-05T16:23:04.870Z,13.80
2023-03-05T16:25:31.801Z,13.52
2023-03-05T16:27:58.523Z,12.92
2023-03-05T16:30:25.302Z,13.14
2023-03-05T16:32:53.727Z,13.31
2023-03-05T16:35:21.229Z,13.02
2023-03-05T16:37:48.041Z,13.19
2023-03-05T16:40:14.954Z,12.99
2023-03-05T16:42:42.110Z,13.11
2023-03-05T16:45:10.385Z,13.14
2023-03-05T16:47:38.415Z,12.84
2023-03-05T16:50:06.501Z,12.75
2023-03-05T16:52:33.243Z,12.83
2023-03-05T16:55:00.341Z,12.95
2023-03-05T16:57:28.878Z,12.58
2023-03-05T16:59:56.400Z,12.03
2023-03-05T17:02:23.609Z,12.46
2023-03-05T17:04:50.719Z,11.95
2023-03-05T17:07:17.985Z,11.56
2023-03-05T17:09:44.748Z,12.03
2023-03-05T17:12:11.564Z,11.31
2023-03-05T17:14:38.661Z,11.69
2023-03-05T17:17:05.413Z,11.82
2023-03-05T17:19:32.078Z,11.85
2023-03-05T17:21:58.968Z,11.92
2023-03-05T17:24:26.118Z,11.14
2023-03-05T17:26:52.804Z,11.52
2023-03-05T17:29:20.038Z,11.57
2023-03-05T17:31:50.558Z,11.15
2023-03-05T17:34:18.386Z,11.90
2023-03-05T17:36:50.465Z,11.38
2023-03-05T17:39:19.121Z,11.21
2023-03-05T17:41:49.475Z,11.58
2023-03-05T17:44:16.277Z,11.12
2023-03-05T17:46:43.162Z,11.40
2023-03-05T17:49:11.880Z,11.10
2023-03-05T17:51:38.586Z,11.24
2023-03-05T17:54:05.895Z,10.57
2023-03-05T17:56:32.939Z,10.73
2023-03-05T17:59:00.385Z,10.88
2023-03-05T18:01:30.788Z,10.71
2023-03-05T18:03:58.297Z,11.05
2023-03-05T18:06:26.506Z,11.19
2023-03-05T18:08:53.303Z,10.97
2023-03-05T18:11:20.259Z,10.65
2023-03-05T18:13:46.924Z,10.78
2023-03-05T18:16:17.780Z,10.47
2023-03-05T18:18:45.202Z,10.37
2023-03-05T18:21:12.160Z,10.58
2023-03-05T18:23:38.932Z,10.06
2023-03-05T18:26:05.725Z,10.13
2023-03-05T18:28:32.507Z,10.02
2023-03-05T18:31:01.589Z,10.40
2023-03-05T18:33:28.286Z,10.08
2023-03-05T18:35:55.233Z,10.39
2023-03-05T18:38:24.427Z,10.16
2023-03-05T18:40:52.734Z,10.32
2023-03-05T18:43:21.813Z,10.16
2023-03-05T18:45:50.627Z,10.06
2023-03-05T18:48:17.663Z,9.75
2023-03-05T18:50:44.663Z,9.66
2023-03-05T18:53:13.762Z,9.33
2023-03-05T18:55:44.905Z,9.34
2023-03-05T18:58:15.769Z,8.67
2023-03-05T19:00:44.812Z,9.68
2023-03-05T19:03:12.319Z,9.70
2023-03-05T19:05:39.983Z,9.79
2023-03-05T19:08:07.930Z,9.72
2023-03-05T19:10:35.432Z,9.70
2023-03-05T19:13:26.665Z,9.21
2023-03-05T19:15:57.181Z,9.54
2023-03-05T19:18:26.418Z,9.31
2023-03-05T19:20:56.124Z,8.93
2023-03-05T19:23:22.872Z,9.41
2023-03-05T19:25:49.639Z,9.16
2023-03-05T19:28:16.438Z,9.52
2023-03-05T19:30:43.148Z,9.57
2023-03-05T19:33:10.205Z,9.48
2023-03-05T19:35:38.224Z,9.22
2023-03-05T19:38:04.972Z,9.17
2023-03-05T19:40:31.809Z,9.46
2023-03-05T19:42:58.923Z,9.46
2023-03-05T19:45:25.668Z,9.52
2023-03-05T19:47:52.360Z,9.88
2023-03-05T19:50:19.351Z,8.79
2023-03-05T19:52:46.182Z,9.38
2023-03-05T19:55:12.941Z,9.29
2023-03-05T19:57:39.998Z,9.50
2023-03-05T20:00:07.430Z,9.66
2023-03-05T20:02:34.101Z,9.32
2023-03-05T20:05:00.900Z,8.94
2023-03-05T20:07:28.018Z,9.25
2023-03-05T20:09:55.604Z,9.23
2023-03-05T20:12:23.418Z,9.30
2023-03-05T20:14:50.494Z,9.44
2023-03-05T20:17:17.378Z,9.23
2023-03-05T20:19:44.172Z,9.27
2023-03-05T20:22:11.202Z,9.63
2023-03-05T20:24:38.235Z,9.31
2023-03-05T20:27:05.035Z,9.11
2023-03-05T20:29:31.824Z,9.55
2023-03-05T20:31:58.754Z,9.13
2023-03-05T20:34:27.088Z,8.95
2023-03-05T20:36:54.031Z,8.66
2023-03-05T20:39:20.787Z,8.41
2023-03-05T20:41:48.516Z,8.49
2023-03-05T20:44:16.550Z,8.42
2023-03-05T20:47:32.825Z,8.31
2023-03-05T20:50:05.961Z,8.85
2023-03-05T20:52:32.860Z,9.17
2023-03-05T20:55:02.459Z,9.18
2023-03-05T20:57:30.484Z,9.42
2023-03-05T20:59:57.212Z,8.94
2023-03-05T21:02:23.966Z,9.37
2023-03-05T21:04:50.790Z,9.32
2023-03-05T21:07:17.569Z,9.40
2023-03-05T21:09:44.524Z,9.63
2023-03-05T21:12:11.523Z,9.34
2023-03-05T21:14:39.783Z,8.66
2023-03-05T21:17:10.053Z,8.45
2023-03-05T21:19:38.503Z,8.57
2023-03-05T21:22:05.317Z,9.21
2023-03-05T21:25:36.266Z,8.88
2023-03-05T21:28:02.992Z,8.87
2023-03-05T21:30:35.996Z,9.21
2023-03-05T21:33:06.231Z,9.22
2023-03-05T21:35:33.736Z,8.63
2023-03-05T21:38:02.540Z,9.15
2023-03-05T21:40:30.217Z,9.49
2023-03-05T21:42:57.121Z,9.72
2023-03-05T21:45:26.799Z,9.19
2023-03-05T21:47:56.253Z,9.38
2023-03-05T21:50:24.618Z,9.41
2023-03-05T21:52:52.254Z,9.40
2023-03-05T21:55:32.294Z,9.23
2023-03-05T21:58:13.779Z,8.41
2023-03-05T22:00:40.647Z,8.79
2023-03-05T22:03:07.380Z,9.08
2023-03-05T22:05:34.181Z,9.07
2023-03-05T22:08:01.082Z,8.66
2023-03-05T22:10:27.893Z,8.78
2023-03-05T22:13:10.205Z,9.17
2023-03-05T22:15:47.878Z,9.02
2023-03-05T22:18:16.792Z,8.98
2023-03-05T22:20:43.788Z,8.94
2023-03-05T22:23:11.475Z,8.68
2023-03-05T22:25:38.432Z,9.10
2023-03-05T22:28:05.882Z,8.88
2023-03-05T22:30:33.154Z,8.92
2023-03-05T22:33:01.890Z,9.02
2023-03-05T22:35:29.413Z,8.77
2023-03-05T22:37:56.238Z,9.15
2023-03-05T22:40:23.206Z,8.94
2023-03-05T22:42:49.991Z,8.79
2023-03-05T22:45:18.058Z,9.23
2023-03-05T22:47:51.469Z,8.81
2023-03-05T22:50:18.709Z,9.23
2023-03-05T22:52:45.771Z,8.98
2023-03-05T22:55:14.678Z,8.65
2023-03-05T22:57:41.894Z,9.09
2023-03-05T23:00:16.127Z,9.08
2023-03-05T23:02:43.977Z,8.96
2023-03-05T23:05:11.657Z,8.98
2023-03-05T23:07:41.449Z,9.05
2023-03-05T23:10:23.867Z,8.83
2023-03-05T23:12:53.660Z,9.00
2023-03-05T23:15:22.867Z,8.71
2023-03-05T23:17:49.724Z,8.83
2023-03-05T23:20:20.307Z,8.85
2023-03-05T23:22:48.994Z,8.72
2023-03-05T23:25:16.505Z,9.04
2023-03-05T23:27:44.943Z,8.64
2023-03-05T23:30:21.959Z,9.05
2023-03-05T23:33:23.925Z,9.02
2023-03-05T23:35:53.368Z,8.53
2023-03-05T23:38:20.505Z,8.27
2023-03-05T23:40:56.328Z,8.70
2023-03-05T23:43:25.088Z,8.47
2023-03-05T23:45:55.025Z,8.43
2023-03-05T23:48:24.006Z,8.87
2023-03-05T23:50:50.798Z,8.38
2023-03-05T23:53:24.477Z,8.86
2023-03-05T23:55:51.728Z,8.96
2023-03-05T23:58:20.509Z,8.53
